MST,Max TemperatureF,Mean TemperatureF,Min TemperatureF,Max Dew PointF,MeanDew PointF,Min DewpointF,Max Humidity, Mean Humidity, Min Humidity, Max Sea Level PressureIn, Mean Sea Level PressureIn, Min Sea Level PressureIn, Max VisibilityMiles, Mean VisibilityMiles, Min VisibilityMiles, Max Wind SpeedMPH, Mean Wind SpeedMPH, Max Gust SpeedMPH,PrecipitationIn, CloudCover, Events, WindDirDegrees
2013-10-1,90,80,71,76,73,70,94,80,50,29.91,29.86,29.80,12,10,7,12,6,,0.00,1,,308
2013-10-2,89,80,71,75,73,70,94,81,54,29.87,29.82,29.75,15,10,0,13,6,,0.00,1,Fog,332
2013-10-3,91,83,73,76,73,70,94,74,46,29.84,29.79,29.73,15,12,10,13,7,,0.00,3,,315
2013-10-4,91,81,71,76,72,69,94,75,45,29.90,29.84,29.79,15,12,10,12,7,,0.00,1,,331
2013-10-5,89,80,71,73,71,70,94,73,51,29.91,29.86,29.80,15,12,10,14,6,,0.00,1,,309
2013-10-6,90,80,71,77,72,70,94,75,51,29.88,29.84,29.78,15,12,10,12,6,,0.00,2,,308
2013-10-7,89,81,73,79,73,70,94,76,52,29.89,29.85,29.78,15,11,8,12,6,,0.00,1,,294
2013-10-8,90,80,69,78,73,68,94,77,61,29.90,29.85,29.79,12,10,10,10,6,,0.00,3,,332
2013-10-9,90,82,73,77,73,70,94,77,53,29.90,29.85,29.80,12,10,8,12,6,,0.00,1,,8
2013-10-10,89,80,71,75,71,68,94,75,53,29.91,29.86,29.80,15,11,3,12,5,,0.00,3,,333
2013-10-11,89,79,69,76,71,66,88,75,55,29.90,29.82,29.76,15,12,8,13,6,,0.00,3,,324
2013-10-12,90,82,75,76,73,72,94,78,49,29.88,29.83,29.78,14,10,7,10,5,,0.00,7,,342
2013-10-13,92,82,73,75,71,70,89,75,47,29.94,29.88,29.84,14,11,10,13,6,,0.00,6,,331
2013-10-14,90,80,71,77,72,70,94,77,58,29.94,29.87,29.82,15,11,10,12,5,,0.00,2,,325
2013-10-15,91,82,73,77,72,70,94,74,52,29.90,29.85,29.78,15,12,10,15,7,,0.00,2,,318
2013-10-16,89,81,73,77,72,68,89,72,52,29.94,29.87,29.81,14,12,10,15,6,,0.00,4,,294
2013-10-17,89,80,71,77,71,68,88,73,56,29.91,29.84,29.76,15,12,10,14,4,,0.00,2,,308
2013-10-18,90,80,71,76,70,66,88,73,46,29.87,29.82,29.77,15,13,10,13,5,,0.00,1,,314
2013-10-19,90,80,69,75,70,64,88,72,51,29.90,29.84,29.80,15,12,8,10,5,,0.00,0,,315
2013-10-20,90,80,69,75,69,63,88,72,51,29.87,29.81,29.74,14,12,10,12,5,,0.00,1,,303
2013-10-21,87,78,68,71,67,61,88,68,44,29.87,29.80,29.73,12,10,7,16,6,,0.00,1,,329
2013-10-22,89,76,62,72,65,61,94,69,43,29.85,29.79,29.72,12,11,7,13,6,,0.00,0,,333
2013-10-23,93,78,64,74,67,61,88,71,38,29.85,29.80,29.75,15,11,8,13,6,,0.00,0,,328
2013-10-24,90,80,69,77,69,63,88,72,52,29.91,29.85,29.77,15,12,10,15,7,,0.00,0,,352
2013-10-25,89,79,69,77,69,64,88,71,55,29.95,29.90,29.84,15,12,10,12,7,,0.00,4,,326
2013-10-26,90,79,68,73,68,64,88,69,46,29.92,29.86,29.80,15,12,10,13,5,,0.00,5,,293
2013-10-27,89,78,66,76,68,63,88,73,55,29.86,29.81,29.74,15,11,10,10,7,,0.00,1,,321
2013-10-28,88,78,68,78,71,64,89,77,58,29.93,29.85,29.78,12,10,6,10,6,,0.00,5,,2
2013-10-29,90,80,71,78,72,66,92,76,53,29.92,29.87,29.80,12,10,10,14,7,,0.00,5,,337
2013-10-30,90,80,71,76,71,68,94,78,55,29.91,29.85,29.81,12,10,3,10,6,,0.00,6,,57
2013-10-31,88,80,71,77,71,68,89,78,62,29.91,29.86,29.81,15,11,8,12,6,,0.00,7,Rain,349